Time;durP1;ratioP1;P1;durP2;ratioP2;P2;SDS_P1;SDS_P2;PMS_P1;PMS_P2;Temp;Humidity;BMP_temperature;BMP_pressure;BME280_temperature;BME280_humidity;BME280_pressure;Samples;Min_cycle;Max_cycle;Signal;HPM_P1;HPM_P2
2022/03/22 00:00:07;;;;;;;18.02;13.63;;;5.70;54.50;;;;;;4997117;28;20201;-78
2022/03/22 00:02:35;;;;;;;18.58;13.50;;;5.70;54.70;;;;;;4997686;28;20236;-78
2022/03/22 00:05:01;;;;;;;16.40;12.57;;;5.60;56.00;;;;;;4997547;28;20216;-78
2022/03/22 00:07:28;;;;;;;19.95;12.15;;;5.50;57.70;;;;;;4997424;28;20302;-77
2022/03/22 00:09:55;;;;;;;14.35;12.48;;;4.30;69.70;;;;;;4997424;28;20189;-79
2022/03/22 00:12:21;;;;;;;21.10;14.73;;;5.40;55.50;;;;;;4997563;28;20256;-77
2022/03/22 00:14:48;;;;;;;18.05;13.40;;;5.60;56.60;;;;;;4997662;28;20284;-77
2022/03/22 00:17:15;;;;;;;17.00;12.10;;;5.50;57.10;;;;;;4998426;28;20257;-78
2022/03/22 00:19:43;;;;;;;18.35;13.95;;;5.40;58.50;;;;;;4997497;28;20209;-78
2022/03/22 00:22:10;;;;;;;19.60;13.65;;;5.50;59.20;;;;;;4996623;28;20241;-78
2022/03/22 00:24:37;;;;;;;19.95;12.43;;;5.50;60.30;;;;;;4996620;28;20568;-78
2022/03/22 00:27:04;;;;;;;16.88;13.32;;;5.40;71.40;;;;;;4996039;28;20316;-78
2022/03/22 00:29:30;;;;;;;18.50;13.20;;;5.40;80.00;;;;;;4996496;28;20648;-78
2022/03/22 00:31:57;;;;;;;17.60;12.48;;;5.30;80.00;;;;;;4997893;28;20232;-78
2022/03/22 00:34:24;;;;;;;15.38;12.32;;;5.20;82.10;;;;;;4997669;28;20260;-78
2022/03/22 00:36:53;;;;;;;18.27;12.80;;;5.30;83.10;;;;;;4998185;28;20216;-79
2022/03/22 00:39:19;;;;;;;15.35;12.25;;;5.30;85.10;;;;;;4997784;28;20256;-78
2022/03/22 00:41:46;;;;;;;19.88;14.27;;;5.20;85.60;;;;;;4997584;28;20204;-78
2022/03/22 00:44:13;;;;;;;17.52;13.68;;;5.20;86.70;;;;;;5002217;28;20225;-78
2022/03/22 00:46:40;;;;;;;16.73;13.55;;;5.40;87.80;;;;;;5001638;28;20212;-78
2022/03/22 00:49:07;;;;;;;16.17;12.68;;;5.10;87.60;;;;;;4996754;28;20235;-78
2022/03/22 00:51:34;;;;;;;15.48;12.00;;;5.00;88.00;;;;;;4997309;28;20668;-78
2022/03/22 00:54:03;;;;;;;24.30;12.65;;;5.00;89.70;;;;;;4996312;28;20739;-79
2022/03/22 00:56:29;;;;;;;18.85;13.30;;;5.10;90.20;;;;;;4996943;28;20300;-79
2022/03/22 01:01:37;;;;;;;20.08;12.73;;;4.80;92.10;;;;;;5004060;28;20193;-79
2022/03/22 01:04:04;;;;;;;18.35;13.43;;;5.10;91.00;;;;;;5004936;28;20224;-79
2022/03/22 01:06:31;;;;;;;16.13;12.15;;;5.10;91.30;;;;;;5007360;28;20204;-79
2022/03/22 01:08:58;;;;;;;17.27;12.73;;;5.10;91.60;;;;;;5010388;28;20279;-79
2022/03/22 01:11:26;;;;;;;18.20;12.73;;;5.00;91.70;;;;;;5006245;28;20259;-79
2022/03/22 01:13:52;;;;;;;18.13;13.38;;;5.00;91.90;;;;;;5004720;28;20209;-79
2022/03/22 01:16:19;;;;;;;18.80;12.70;;;4.90;92.80;;;;;;5005022;28;20204;-79
2022/03/22 01:18:45;;;;;;;19.48;13.20;;;4.90;93.50;;;;;;5004320;28;20229;-79
2022/03/22 01:21:12;;;;;;;17.15;12.13;;;4.80;94.60;;;;;;5005393;28;20209;-78
2022/03/22 01:23:39;;;;;;;21.52;12.63;;;4.90;95.10;;;;;;5004788;28;20228;-79
2022/03/22 01:26:06;;;;;;;16.75;12.43;;;;;;;;;;5004975;28;20192;-79
2022/03/22 01:28:35;;;;;;;18.75;14.15;;;5.20;78.50;;;;;;5009937;28;20606;-79
2022/03/22 01:31:01;;;;;;;19.55;13.52;;;4.70;73.90;;;;;;5005145;28;20209;-79
2022/03/22 01:33:28;;;;;;;18.77;13.65;;;4.60;83.90;;;;;;5005114;28;20197;-79
2022/03/22 01:35:57;;;;;;;18.67;13.18;;;;;;;;;;5004126;28;20212;-79
2022/03/22 01:38:25;;;;;;;19.38;13.05;;;;;;;;;;5004309;28;20229;-80
2022/03/22 01:40:52;;;;;;;21.17;13.18;;;4.30;96.50;;;;;;5005943;28;20248;-80
2022/03/22 01:43:18;;;;;;;20.80;12.60;;;4.30;97.30;;;;;;5006468;28;20251;-79
2022/03/22 01:45:49;;;;;;;18.25;12.30;;;4.30;97.30;;;;;;5010752;28;20714;-78
2022/03/22 01:48:16;;;;;;;16.80;12.55;;;4.20;97.30;;;;;;5010757;28;20623;-78
2022/03/22 01:50:43;;;;;;;16.23;12.57;;;4.30;97.40;;;;;;5015996;28;20268;-80
2022/03/22 01:53:11;;;;;;;21.58;12.15;;;4.40;98.00;;;;;;5011467;28;20209;-79
2022/03/22 01:55:39;;;;;;;20.77;13.90;;;4.40;97.60;;;;;;5007646;28;20225;-78
2022/03/22 01:58:05;;;;;;;20.13;13.07;;;4.40;98.10;;;;;;5007648;28;20225;-79
2022/03/22 02:00:32;;;;;;;18.35;12.75;;;4.30;97.90;;;;;;5006417;28;20205;-79
2022/03/22 02:05:54;;;;;;;18.05;14.50;;;4.10;98.70;;;;;;5009431;28;20269;-79
2022/03/22 02:08:24;;;;;;;17.92;13.13;;;4.20;99.70;;;;;;5011063;28;20320;-79
2022/03/22 02:10:51;;;;;;;20.15;14.05;;;4.30;99.90;;;;;;5011212;28;20220;-79
2022/03/22 02:13:18;;;;;;;20.13;13.55;;;4.20;99.70;;;;;;5007783;28;20668;-79
2022/03/22 02:15:48;;;;;;;20.10;13.00;;;4.10;99.80;;;;;;5005770;28;20209;-79
2022/03/22 02:18:16;;;;;;;18.70;13.48;;;4.30;96.70;;;;;;5005052;28;20256;-79
2022/03/22 02:20:43;;;;;;;24.15;14.13;;;4.20;96.50;;;;;;5005821;28;20228;-79
2022/03/22 02:23:19;;;;;;;15.50;12.50;;;3.90;97.00;;;;;;5005852;28;20213;-80
2022/03/22 02:25:49;;;;;;;21.90;13.57;;;4.10;97.40;;;;;;5005970;28;20644;-80
2022/03/22 02:28:16;;;;;;;15.80;12.60;;;4.10;97.40;;;;;;5011151;28;20239;-79
2022/03/22 02:30:45;;;;;;;26.55;12.23;;;4.00;97.60;;;;;;5018839;28;20204;-78
2022/03/22 02:33:12;;;;;;;19.70;13.48;;;4.10;97.80;;;;;;5017611;28;20265;-79
2022/03/22 02:35:39;;;;;;;18.75;13.30;;;4.00;97.90;;;;;;5016164;28;20293;-79
2022/03/22 02:38:07;;;;;;;17.70;12.80;;;3.90;98.70;;;;;;5015847;28;20233;-79
2022/03/22 02:40:35;;;;;;;24.05;12.70;;;3.90;99.80;;;;;;5015301;28;20228;-79
2022/03/22 02:43:03;;;;;;;16.67;13.40;;;3.70;99.90;;;;;;5012775;28;20208;-79
2022/03/22 02:45:30;;;;;;;21.00;13.52;;;4.00;99.90;;;;;;5014698;28;20231;-79
2022/03/22 02:47:56;;;;;;;17.77;13.32;;;3.90;99.90;;;;;;5014851;28;20225;-80
2022/03/22 02:50:23;;;;;;;20.27;14.20;;;3.90;99.90;;;;;;5012300;28;20243;-80
2022/03/22 02:52:50;;;;;;;22.60;13.35;;;3.90;99.90;;;;;;5007646;28;20209;-80
2022/03/22 02:55:17;;;;;;;18.42;11.93;;;3.90;99.90;;;;;;5006986;28;20204;-80
2022/03/22 02:57:44;;;;;;;18.25;13.20;;;3.90;99.90;;;;;;5006882;28;20229;-80
2022/03/22 03:00:14;;;;;;;20.73;13.43;;;3.70;99.90;;;;;;5006155;28;20575;-80
2022/03/22 03:02:42;;;;;;;19.17;12.55;;;3.70;99.90;;;;;;5006286;28;20209;-80
2022/03/22 03:05:09;;;;;;;19.73;14.57;;;3.50;99.90;;;;;;5005375;28;20244;-79
2022/03/22 03:07:36;;;;;;;22.13;14.43;;;3.80;99.90;;;;;;5004885;28;20640;-79
2022/03/22 03:10:04;;;;;;;18.58;13.18;;;3.70;99.90;;;;;;5005023;28;20208;-79
2022/03/22 03:12:30;;;;;;;18.73;12.73;;;3.60;99.90;;;;;;5006986;28;20201;-79
2022/03/22 03:14:57;;;;;;;22.50;13.52;;;3.60;99.90;;;;;;5007793;28;20205;-79
2022/03/22 03:17:25;;;;;;;20.23;14.00;;;3.60;99.90;;;;;;5009056;28;20299;-79
2022/03/22 03:19:52;;;;;;;16.85;13.65;;;3.50;99.90;;;;;;5007928;28;20208;-79
2022/03/22 03:22:19;;;;;;;21.42;12.75;;;3.50;99.90;;;;;;5005367;28;20209;-79
2022/03/22 03:24:45;;;;;;;20.55;14.63;;;3.50;99.90;;;;;;5005206;28;20722;-79
2022/03/22 03:27:12;;;;;;;18.83;14.18;;;3.50;99.90;;;;;;5003595;28;20263;-79
2022/03/22 03:29:39;;;;;;;20.02;13.15;;;3.30;99.90;;;;;;5005413;28;20201;-79
2022/03/22 03:32:06;;;;;;;19.73;13.75;;;3.40;99.90;;;;;;5001394;28;20232;-79
2022/03/22 03:34:34;;;;;;;21.88;13.80;;;3.40;99.90;;;;;;5006105;28;20209;-79
2022/03/22 03:37:00;;;;;;;24.30;14.80;;;3.30;99.90;;;;;;5012011;28;20205;-79
2022/03/22 03:39:27;;;;;;;21.10;13.73;;;3.10;99.90;;;;;;5008008;28;20197;-79
2022/03/22 03:41:57;;;;;;;16.27;13.23;;;2.80;99.90;;;;;;5006993;28;20201;-79
2022/03/22 03:47:11;;;;;;;19.10;13.55;;;3.30;99.90;;;;;;5006197;28;20552;-79
2022/03/22 03:49:41;;;;;;;19.33;13.85;;;3.40;99.90;;;;;;5010629;28;20232;-79
2022/03/22 03:52:09;;;;;;;17.40;13.20;;;3.00;99.90;;;;;;5013095;28;20208;-79
2022/03/22 03:54:36;;;;;;;20.17;13.45;;;3.10;95.70;;;;;;5012850;28;20197;-79
2022/03/22 03:57:04;;;;;;;18.40;13.13;;;3.00;96.20;;;;;;5012206;28;20209;-78
2022/03/22 03:59:30;;;;;;;19.08;13.63;;;3.00;96.80;;;;;;5012793;28;20205;-78
2022/03/22 04:01:57;;;;;;;16.90;13.05;;;2.90;97.10;;;;;;5013163;28;20245;-79
2022/03/22 04:04:24;;;;;;;17.10;12.35;;;2.90;97.60;;;;;;5015823;28;20225;-79
2022/03/22 04:06:52;;;;;;;21.27;13.50;;;2.80;98.50;;;;;;5013056;28;20652;-79
2022/03/22 04:09:19;;;;;;;18.33;14.02;;;2.80;99.70;;;;;;5012691;28;20209;-80
2022/03/22 04:11:46;;;;;;;26.98;14.18;;;2.80;99.90;;;;;;5012017;28;20291;-79
2022/03/22 04:14:13;;;;;;;19.17;13.70;;;2.70;99.90;;;;;;5008286;28;20205;-79
2022/03/22 04:16:40;;;;;;;20.52;13.63;;;2.70;99.90;;;;;;5006592;28;20205;-79
2022/03/22 04:19:08;;;;;;;21.77;14.23;;;2.70;99.90;;;;;;5007544;28;20221;-79
2022/03/22 04:21:35;;;;;;;16.63;12.90;;;2.80;99.90;;;;;;5007661;28;20205;-79
2022/03/22 04:24:05;;;;;;;20.23;14.05;;;2.80;99.90;;;;;;5006117;28;20211;-79
2022/03/22 04:26:32;;;;;;;20.67;13.73;;;2.60;99.90;;;;;;5008899;28;20245;-81
2022/03/22 04:34:28;;;;;;;21.80;15.02;;;2.70;1.00;;;;;;5011704;28;20184;-80
2022/03/22 04:36:57;;;;;;;18.83;13.88;;;2.50;1.00;;;;;;5014540;28;20205;-78
2022/03/22 04:39:27;;;;;;;22.20;14.15;;;2.80;1.00;;;;;;5014675;28;20216;-78
2022/03/22 04:41:54;;;;;;;19.33;14.68;;;2.50;11.30;;;;;;5007987;28;20285;-79
2022/03/22 04:44:21;;;;;;;25.70;16.00;;;2.70;23.60;;;;;;5010350;28;20232;-79
2022/03/22 04:46:47;;;;;;;22.35;13.75;;;3.30;1.00;;;;;;5017242;28;20212;-78
2022/03/22 04:49:14;;;;;;;23.38;13.75;;;2.60;1.00;;;;;;5017591;28;20229;-78
2022/03/22 04:57:12;;;;;;;20.25;14.30;;;2.50;1.00;;;;;;5007696;28;20188;-79
2022/03/22 04:59:38;;;;;;;18.15;12.88;;;2.50;1.00;;;;;;5012249;28;20306;-78
2022/03/22 05:02:05;;;;;;;19.52;14.13;;;2.50;1.00;;;;;;5020047;28;20205;-79
2022/03/22 05:04:32;;;;;;;22.25;14.10;;;2.60;1.00;;;;;;5019952;28;20231;-79
2022/03/22 05:06:59;;;;;;;23.05;12.98;;;2.30;1.00;;;;;;5019925;28;20177;-78
2022/03/22 05:09:28;;;;;;;23.05;15.18;;;2.50;1.00;;;;;;5018763;28;20209;-79
2022/03/22 05:11:55;;;;;;;27.02;14.95;;;2.50;99.90;;;;;;5014937;28;20236;-79
2022/03/22 05:14:22;;;;;;;25.50;14.23;;;2.50;39.60;;;;;;5013510;28;20215;-79
2022/03/22 05:16:49;;;;;;;23.05;13.57;;;2.50;1.00;;;;;;5012718;28;20220;-79
2022/03/22 05:19:16;;;;;;;19.75;13.88;;;2.50;1.00;;;;;;5014205;28;20235;-79
2022/03/22 05:21:42;;;;;;;20.85;13.52;;;2.20;1.00;;;;;;5006305;28;20220;-80
2022/03/22 05:24:09;;;;;;;18.52;14.18;;;2.60;25.00;;;;;;5004841;28;20240;-80
2022/03/22 05:26:37;;;;;;;20.55;14.05;;;2.60;31.60;;;;;;5003480;28;20212;-79
2022/03/22 05:29:05;;;;;;;22.83;16.27;;;2.60;99.90;;;;;;5005253;28;20225;-79
2022/03/22 05:31:32;;;;;;;19.77;14.63;;;2.60;99.90;;;;;;5007974;28;20209;-78
2022/03/22 05:33:59;;;;;;;19.73;13.30;;;2.40;99.90;;;;;;5007993;28;20201;-79
2022/03/22 05:36:25;;;;;;;27.45;14.60;;;2.70;99.90;;;;;;5012623;28;20232;-79
2022/03/22 05:38:53;;;;;;;25.15;14.30;;;2.60;99.90;;;;;;5014972;28;20240;-79
2022/03/22 05:41:20;;;;;;;20.00;13.73;;;2.60;99.90;;;;;;5013702;28;20318;-79
2022/03/22 05:43:48;;;;;;;23.25;13.57;;;2.60;99.90;;;;;;5014033;28;20219;-79
2022/03/22 05:46:17;;;;;;;23.65;14.52;;;2.20;99.90;;;;;;5012941;28;20225;-79
2022/03/22 05:48:44;;;;;;;25.95;17.33;;;;;;;;;;5008764;28;20224;-79
2022/03/22 05:51:11;;;;;;;33.13;16.52;;;3.30;1.00;;;;;;5008286;28;20750;-79
2022/03/22 05:53:38;;;;;;;29.45;14.90;;;2.90;1.00;;;;;;5003694;28;20205;-80
2022/03/22 05:56:05;;;;;;;29.98;16.38;;;2.80;1.00;;;;;;5004017;28;20215;-79
2022/03/22 05:58:32;;;;;;;25.30;16.60;;;2.80;1.00;;;;;;5004350;28;20256;-78
2022/03/22 06:01:00;;;;;;;25.42;16.40;;;2.90;1.00;;;;;;5000869;28;20201;-79
2022/03/22 06:03:26;;;;;;;25.58;14.95;;;3.00;1.00;;;;;;5002417;28;20216;-79
2022/03/22 06:05:53;;;;;;;27.13;16.67;;;2.90;1.00;;;;;;5003173;28;20213;-79
2022/03/22 06:08:20;;;;;;;22.15;14.43;;;2.80;1.00;;;;;;5006993;28;20225;-79
2022/03/22 06:10:47;;;;;;;27.40;16.10;;;2.90;1.00;;;;;;5003338;28;20205;-79
2022/03/22 06:13:13;;;;;;;20.23;14.43;;;3.20;1.00;;;;;;5002907;28;20271;-79
2022/03/22 06:15:40;;;;;;;25.73;15.80;;;3.30;1.00;;;;;;4999735;28;20209;-78
2022/03/22 06:18:11;;;;;;;18.63;14.27;;;3.30;1.00;;;;;;4997373;28;20637;-78
2022/03/22 06:20:38;;;;;;;20.17;16.83;;;3.30;1.00;;;;;;4998774;28;20200;-80
2022/03/22 06:23:07;;;;;;;19.10;14.80;;;3.40;1.00;;;;;;5000804;28;20232;-79
2022/03/22 06:25:35;;;;;;;21.00;13.82;;;3.40;1.00;;;;;;5010617;28;20765;-80
2022/03/22 06:28:03;;;;;;;20.38;14.93;;;;;;;;;;5029540;23;20320;-83
2022/03/22 06:30:30;;;;;;;22.45;14.63;;;3.30;1.00;;;;;;5008040;28;20232;-83
2022/03/22 06:32:58;;;;;;;20.20;14.63;;;3.40;1.00;;;;;;5010355;28;20205;-83
2022/03/22 06:35:28;;;;;;;28.42;16.08;;;3.40;1.00;;;;;;5011860;28;20197;-84
2022/03/22 06:37:55;;;;;;;23.48;14.50;;;3.40;1.00;;;;;;5008951;28;20201;-81
2022/03/22 06:40:27;;;;;;;28.60;16.08;;;3.20;1.00;;;;;;5010722;28;20209;-82
2022/03/22 06:42:54;;;;;;;22.48;15.10;;;3.50;1.00;;;;;;5009570;28;20197;-79
2022/03/22 06:45:21;;;;;;;22.77;14.27;;;3.70;1.00;;;;;;5008658;28;20240;-80
2022/03/22 06:47:49;;;;;;;26.60;16.65;;;3.60;1.00;;;;;;5007523;28;20232;-79
2022/03/22 06:50:17;;;;;;;31.38;16.13;;;3.50;1.00;;;;;;5009102;28;20288;-79
2022/03/22 06:52:47;;;;;;;27.73;17.23;;;3.90;1.00;;;;;;5007179;28;20695;-79
2022/03/22 06:55:16;;;;;;;21.50;15.68;;;4.00;1.00;;;;;;5008325;28;20738;-80
2022/03/22 06:57:43;;;;;;;22.85;15.60;;;4.10;1.00;;;;;;5009897;28;20211;-82
2022/03/22 07:00:15;;;;;;;27.38;16.50;;;4.20;1.00;;;;;;5009758;28;20229;-82
2022/03/22 07:02:42;;;;;;;23.95;16.05;;;4.30;1.00;;;;;;5009230;28;20204;-80
2022/03/22 07:05:09;;;;;;;31.77;18.38;;;4.40;1.00;;;;;;5007824;28;20257;-84
2022/03/22 07:07:36;;;;;;;29.20;16.05;;;4.50;1.00;;;;;;5010880;28;20220;-80
2022/03/22 07:10:06;;;;;;;23.27;15.90;;;4.40;1.00;;;;;;5012885;28;20232;-80
2022/03/22 07:12:33;;;;;;;27.17;16.67;;;4.60;1.00;;;;;;5010037;28;20205;-79
2022/03/22 07:15:03;;;;;;;22.65;15.88;;;4.70;1.00;;;;;;5010686;28;20228;-80
2022/03/22 07:17:30;;;;;;;21.63;14.57;;;4.70;1.00;;;;;;5010921;28;20205;-80
2022/03/22 07:19:57;;;;;;;21.35;15.50;;;4.70;1.00;;;;;;5009206;28;20704;-79
2022/03/22 07:22:23;;;;;;;20.20;16.65;;;4.50;1.00;;;;;;5009373;28;20232;-79
2022/03/22 07:24:50;;;;;;;20.73;16.02;;;4.80;1.00;;;;;;5010690;28;20240;-79
2022/03/22 07:27:18;;;;;;;23.45;15.73;;;5.40;1.00;;;;;;5009366;28;20201;-80
2022/03/22 07:29:45;;;;;;;33.53;17.40;;;5.50;1.00;;;;;;5007162;28;20237;-82
2022/03/22 07:32:11;;;;;;;22.27;14.07;;;5.50;1.00;;;;;;5011101;28;20204;-80
2022/03/22 07:34:38;;;;;;;23.33;16.05;;;5.60;1.00;;;;;;5011949;28;20204;-80
2022/03/22 07:37:05;;;;;;;22.25;14.23;;;6.00;1.00;;;;;;5008411;28;20212;-78
2022/03/22 07:39:34;;;;;;;17.50;13.05;;;;;;;;;;5007516;28;20261;-81
2022/03/22 07:42:02;;;;;;;18.38;13.85;;;6.10;1.00;;;;;;5010221;28;20237;-79
2022/03/22 07:44:31;;;;;;;21.75;14.43;;;6.20;1.00;;;;;;5009426;28;20273;-79
2022/03/22 07:46:59;;;;;;;17.95;13.20;;;6.30;1.00;;;;;;5004759;28;20233;-82
2022/03/22 07:54:54;;;;;;;17.67;12.77;;;7.00;99.90;;;;;;5004682;28;20679;-81
2022/03/22 07:57:21;;;;;;;19.15;14.02;;;6.90;99.90;;;;;;5006362;28;20205;-80
2022/03/22 07:59:49;;;;;;;17.08;12.23;;;6.90;99.90;;;;;;5005059;28;20232;-81
2022/03/22 08:02:15;;;;;;;18.75;13.30;;;7.00;99.90;;;;;;5003783;28;20205;-81
2022/03/22 08:04:42;;;;;;;18.52;12.00;;;7.10;99.90;;;;;;5008606;28;20211;-80
2022/03/22 08:07:09;;;;;;;22.58;13.75;;;7.20;1.00;;;;;;5007819;28;20228;-81
2022/03/22 08:09:36;;;;;;;16.38;12.57;;;7.70;1.00;;;;;;5012532;28;20253;-81
2022/03/22 08:12:03;;;;;;;17.42;13.43;;;7.20;99.90;;;;;;5011996;28;20209;-81
2022/03/22 08:14:30;;;;;;;24.77;15.63;;;7.60;99.90;;;;;;5016921;28;20193;-81
2022/03/22 08:17:00;;;;;;;20.45;13.35;;;7.70;99.90;;;;;;5018303;28;20226;-80
2022/03/22 08:19:29;;;;;;;18.25;12.20;;;7.70;1.00;;;;;;5017813;28;20229;-84
2022/03/22 08:21:56;;;;;;;21.08;13.45;;;7.70;1.00;;;;;;5010605;28;20203;-82
2022/03/22 08:24:23;;;;;;;17.03;11.97;;;7.60;99.90;;;;;;5009830;28;20205;-80
2022/03/22 08:26:50;;;;;;;16.48;13.80;;;7.80;99.90;;;;;;5010105;28;20551;-79
2022/03/22 08:29:19;;;;;;;16.33;13.00;;;8.00;1.00;;;;;;5006072;28;20240;-81
2022/03/22 08:31:46;;;;;;;15.87;13.40;;;8.10;99.90;;;;;;5006576;28;20204;-81
2022/03/22 08:34:14;;;;;;;19.97;13.00;;;8.20;1.00;;;;;;5007705;28;20453;-80
2022/03/22 08:36:42;;;;;;;25.53;18.87;;;8.30;1.00;;;;;;5011090;28;20448;-81
2022/03/22 08:39:10;;;;;;;20.07;12.43;;;8.50;1.00;;;;;;5009221;28;20475;-82
2022/03/22 08:41:39;;;;;;;16.17;12.10;;;8.60;99.90;;;;;;5007633;28;20508;-79
2022/03/22 08:44:06;;;;;;;13.97;11.80;;;8.60;1.00;;;;;;5005664;28;20437;-81
2022/03/22 08:46:32;;;;;;;19.50;13.53;;;8.70;1.00;;;;;;5005548;28;20523;-80
2022/03/22 08:48:59;;;;;;;15.17;11.60;;;8.80;1.00;;;;;;5007097;28;20488;-81
2022/03/22 08:51:27;;;;;;;14.90;11.20;;;8.90;1.00;;;;;;5012849;28;20450;-79
2022/03/22 08:53:54;;;;;;;14.90;11.93;;;9.00;1.00;;;;;;5015195;28;20451;-80
2022/03/22 08:56:23;;;;;;;19.37;12.70;;;9.00;1.00;;;;;;5014939;28;20502;-79
2022/03/22 08:58:54;;;;;;;14.30;11.50;;;;;;;;;;5012763;28;20446;-79
2022/03/22 09:01:27;;;;;;;18.90;12.37;;;;;;;;;;5015358;28;20416;-81
2022/03/22 09:06:42;;;;;;;15.80;11.40;;;;;;;;;;5009523;28;20513;-82
2022/03/22 09:09:10;;;;;;;15.90;11.90;;;;;;;;;;5005209;28;20476;-81
2022/03/22 09:11:40;;;;;;;18.60;13.47;;;;;;;;;;5005208;28;20435;-81
2022/03/22 09:14:07;;;;;;;14.57;12.40;;;9.90;1.00;;;;;;5004570;28;20463;-81
2022/03/22 09:16:34;;;;;;;20.10;13.90;;;9.80;1.00;;;;;;5005383;28;20430;-79
2022/03/22 09:19:01;;;;;;;11.97;10.63;;;9.70;1.00;;;;;;5003749;28;20479;-81
2022/03/22 09:21:27;;;;;;;18.53;11.20;;;9.60;1.00;;;;;;5007037;28;20446;-80
2022/03/22 09:23:55;;;;;;;16.80;10.80;;;9.90;1.00;;;;;;5008507;28;20482;-80
2022/03/22 09:26:22;;;;;;;18.20;11.70;;;10.00;1.00;;;;;;5004710;28;20459;-82
2022/03/22 09:28:52;;;;;;;13.23;10.83;;;9.90;1.00;;;;;;5005691;28;20454;-79
2022/03/22 09:31:20;;;;;;;14.17;11.43;;;10.10;1.00;;;;;;5001750;28;20433;-81
2022/03/22 09:33:51;;;;;;;14.07;11.10;;;10.30;1.00;;;;;;5003113;28;20427;-80
2022/03/22 09:36:18;;;;;;;14.97;10.70;;;10.20;1.00;;;;;;5002387;28;20432;-80
2022/03/22 09:38:46;;;;;;;12.93;10.60;;;10.30;1.00;;;;;;5002231;28;20523;-82
2022/03/22 09:41:15;;;;;;;12.63;11.20;;;10.40;1.00;;;;;;5003701;28;20472;-80
2022/03/22 09:43:46;;;;;;;14.53;10.03;;;10.50;1.00;;;;;;5004789;28;20430;-81
2022/03/22 09:46:17;;;;;;;14.00;11.00;;;10.50;1.00;;;;;;5006318;28;20447;-81
2022/03/22 09:48:44;;;;;;;13.70;11.37;;;10.90;1.00;;;;;;5004002;28;20510;-82
2022/03/22 09:53:55;;;;;;;13.83;12.23;;;10.90;1.00;;;;;;5003844;28;20460;-80
2022/03/22 09:56:26;;;;;;;17.70;10.43;;;10.90;1.00;;;;;;5004540;28;20514;-83
2022/03/22 09:58:53;;;;;;;13.87;10.60;;;11.00;1.00;;;;;;5006892;28;20443;-82
2022/03/22 10:01:21;;;;;;;13.80;10.97;;;10.90;1.00;;;;;;5008838;28;20441;-83
2022/03/22 10:03:57;;;;;;;18.83;11.40;;;11.10;1.00;;;;;;5004982;28;20484;-82
2022/03/22 10:06:23;;;;;;;14.63;11.77;;;11.20;1.00;;;;;;5003102;28;20543;-79
2022/03/22 10:08:51;;;;;;;11.63;9.90;;;11.10;1.00;;;;;;5003355;28;20866;-80
2022/03/22 10:11:18;;;;;;;12.33;10.87;;;11.20;1.00;;;;;;5003653;28;20448;-82
2022/03/22 10:13:54;;;;;;;17.90;11.40;;;11.40;1.00;;;;;;5003161;28;20425;-80
2022/03/22 10:16:20;;;;;;;12.23;9.80;;;11.40;1.00;;;;;;5003439;28;20444;-80
2022/03/22 10:18:48;;;;;;;11.70;10.10;;;11.40;1.00;;;;;;5004436;28;20500;-80
2022/03/22 10:21:15;;;;;;;16.60;10.73;;;11.50;1.00;;;;;;5007387;28;20827;-79
2022/03/22 10:23:52;;;;;;;12.63;9.60;;;11.60;1.00;;;;;;5003856;28;20440;-78
2022/03/22 10:26:19;;;;;;;10.53;9.33;;;11.70;1.00;;;;;;5004397;28;20461;-80
2022/03/22 10:28:55;;;;;;;13.60;10.40;;;11.60;1.00;;;;;;5004776;28;20451;-80
2022/03/22 10:31:33;;;;;;;10.77;9.50;;;11.70;16.00;;;;;;5008712;28;20432;-81
2022/03/22 10:34:00;;;;;;;12.27;10.37;;;11.80;64.30;;;;;;5010261;28;20768;-79
2022/03/22 10:36:27;;;;;;;12.47;10.70;;;11.70;67.10;;;;;;5010263;28;20447;-83
2022/03/22 10:38:55;;;;;;;12.53;9.90;;;11.80;59.90;;;;;;5009747;28;20472;-79
2022/03/22 10:41:26;;;;;;;15.30;10.03;;;11.30;63.90;;;;;;5008518;28;20448;-81
2022/03/22 10:44:09;;;;;;;16.23;11.17;;;12.00;68.30;;;;;;5008845;28;20427;-83
2022/03/22 10:46:38;;;;;;;16.97;11.37;;;12.10;66.40;;;;;;5006594;28;20888;-80
2022/03/22 10:49:08;;;;;;;11.67;9.43;;;11.90;63.80;;;;;;5009928;28;20479;-82
2022/03/22 10:51:37;;;;;;;11.10;9.80;;;12.10;63.00;;;;;;5008564;28;20431;-83
2022/03/22 10:54:04;;;;;;;16.40;11.73;;;12.30;64.30;;;;;;5006763;28;20444;-80
2022/03/22 10:56:33;;;;;;;12.73;10.40;;;12.50;63.90;;;;;;5006140;28;20472;-80
2022/03/22 10:59:00;;;;;;;16.20;11.77;;;12.30;59.80;;;;;;5004715;28;20480;-82
2022/03/22 11:01:29;;;;;;;14.20;11.37;;;12.50;63.60;;;;;;5004094;28;20429;-82
2022/03/22 11:03:58;;;;;;;12.20;10.03;;;12.60;61.00;;;;;;5005099;28;20423;-81
2022/03/22 11:06:30;;;;;;;16.60;11.70;;;12.60;59.80;;;;;;5004173;28;20522;-81
2022/03/22 11:08:57;;;;;;;13.33;10.20;;;12.80;59.90;;;;;;5003921;28;20464;-83
2022/03/22 11:11:24;;;;;;;15.90;10.63;;;12.90;61.80;;;;;;5005156;28;20448;-81
2022/03/22 11:13:51;;;;;;;12.73;11.03;;;12.80;66.20;;;;;;5005944;28;20448;-83
2022/03/22 11:16:20;;;;;;;12.90;10.10;;;13.00;64.60;;;;;;5009737;28;20476;-83
2022/03/22 11:18:49;;;;;;;19.03;10.60;;;13.00;64.30;;;;;;5008246;28;20840;-80
2022/03/22 11:21:18;;;;;;;14.33;11.37;;;13.00;58.20;;;;;;5008772;28;20450;-82
2022/03/22 11:23:47;;;;;;;10.13;9.13;;;13.10;65.70;;;;;;5009063;28;20444;-81
2022/03/22 11:26:16;;;;;;;11.30;9.50;;;13.10;64.90;;;;;;5006075;28;20973;-82
2022/03/22 11:28:44;;;;;;;9.77;8.70;;;13.20;55.50;;;;;;5006533;28;20460;-82
2022/03/22 11:31:14;;;;;;;9.50;8.50;;;13.50;56.90;;;;;;5007100;28;20449;-82
2022/03/22 11:36:41;;;;;;;11.90;9.70;;;13.30;58.80;;;;;;5008886;28;20415;-82
2022/03/22 11:42:15;;;;;;;12.00;8.77;;;13.70;59.10;;;;;;5007717;28;20458;-80
2022/03/22 11:42:17;;;;;;;9.77;8.67;;;13.50;59.20;;;;;;5007393;28;20429;-82
2022/03/22 11:44:54;;;;;;;10.40;9.40;;;13.60;56.90;;;;;;5006841;28;20425;-81
2022/03/22 11:47:22;;;;;;;16.50;10.17;;;13.80;61.00;;;;;;5006435;28;20467;-83
2022/03/22 11:49:54;;;;;;;11.03;9.60;;;13.70;31.40;;;;;;5006826;28;20573;-82
2022/03/22 11:52:24;;;;;;;10.53;9.40;;;13.50;54.80;;;;;;5006892;28;20443;-82
2022/03/22 11:54:58;;;;;;;12.07;9.83;;;13.90;56.10;;;;;;5007661;28;20440;-81
2022/03/22 11:57:26;;;;;;;11.33;9.00;;;14.20;56.20;;;;;;5007961;28;20524;-80
2022/03/22 11:59:53;;;;;;;10.47;9.43;;;13.80;26.80;;;;;;5007454;28;20443;-82
2022/03/22 12:02:22;;;;;;;17.23;10.53;;;13.60;25.90;;;;;;5009745;28;20452;-81
2022/03/22 12:04:54;;;;;;;10.80;9.07;;;14.00;32.00;;;;;;5006952;28;20435;-81
2022/03/22 12:07:27;;;;;;;11.00;9.13;;;14.00;36.30;;;;;;5007666;28;20446;-81
2022/03/22 12:10:05;;;;;;;10.77;9.07;;;14.20;28.20;;;;;;5009201;28;20471;-82
2022/03/22 12:12:32;;;;;;;12.27;9.37;;;14.20;28.50;;;;;;5006788;28;20408;-81
2022/03/22 12:15:01;;;;;;;12.30;10.30;;;14.30;25.50;;;;;;5008268;28;20451;-82
2022/03/22 12:17:28;;;;;;;11.73;8.27;;;14.40;32.90;;;;;;5007888;28;20448;-82
2022/03/22 12:19:59;;;;;;;11.70;8.70;;;14.40;26.50;;;;;;5009479;28;20519;-81
2022/03/22 12:22:29;;;;;;;13.10;9.50;;;14.40;26.00;;;;;;5005553;28;20938;-81
2022/03/22 12:24:58;;;;;;;9.50;8.50;;;14.50;24.20;;;;;;5005792;28;20824;-80
2022/03/22 12:27:25;;;;;;;9.53;8.53;;;14.50;29.40;;;;;;5004372;28;20487;-82
2022/03/22 12:29:54;;;;;;;10.50;8.00;;;14.50;28.70;;;;;;5035189;23;20503;-79
2022/03/22 12:32:22;;;;;;;9.70;8.80;;;14.60;28.40;;;;;;5006954;28;20445;-78
2022/03/22 12:34:50;;;;;;;10.50;9.40;;;13.90;29.10;;;;;;5009739;28;20452;-79
2022/03/22 12:37:18;;;;;;;14.00;9.40;;;15.00;35.80;;;;;;5007319;28;20471;-78
2022/03/22 12:39:48;;;;;;;8.80;7.90;;;14.70;40.60;;;;;;5005612;28;20451;-78
2022/03/22 12:42:16;;;;;;;9.47;8.43;;;14.30;30.80;;;;;;5010726;28;20456;-79
2022/03/22 12:44:43;;;;;;;11.93;9.77;;;14.90;48.60;;;;;;5010899;28;20448;-79
2022/03/22 12:47:10;;;;;;;9.33;8.43;;;14.90;54.40;;;;;;5009750;28;20488;-79
2022/03/22 12:49:39;;;;;;;13.97;9.33;;;15.00;50.20;;;;;;5007297;28;20483;-78
2022/03/22 12:52:07;;;;;;;8.97;7.77;;;15.00;42.20;;;;;;5009510;28;20471;-80
2022/03/22 12:54:36;;;;;;;16.37;8.77;;;15.10;44.00;;;;;;5007564;28;20468;-80
2022/03/22 12:57:08;;;;;;;8.03;7.20;;;15.20;40.20;;;;;;5008961;28;20452;-80
2022/03/22 12:59:35;;;;;;;10.20;8.30;;;15.40;42.40;;;;;;5008350;28;20563;-80
2022/03/22 13:02:06;;;;;;;8.00;7.20;;;15.70;48.20;;;;;;5009031;28;20540;-80
2022/03/22 13:04:36;;;;;;;9.47;8.57;;;15.30;48.00;;;;;;5008479;28;20430;-80
2022/03/22 13:07:05;;;;;;;13.10;8.10;;;15.30;43.80;;;;;;5008490;28;20450;-79
2022/03/22 13:12:19;;;;;;;8.80;6.93;;;15.40;46.30;;;;;;5007112;28;20407;-80
2022/03/22 13:17:33;;;;;;;9.60;6.80;;;15.30;50.10;;;;;;5008782;28;20416;-80
2022/03/22 13:20:08;;;;;;;6.80;6.20;;;15.50;54.20;;;;;;5007411;28;20527;-80
2022/03/22 13:22:35;;;;;;;7.30;6.60;;;15.50;58.30;;;;;;5005849;28;20463;-79
2022/03/22 13:25:09;;;;;;;7.07;6.37;;;15.70;62.80;;;;;;5004670;28;20497;-80